sensor_id;sensor_type;location;lat;lon;timestamp;P1;durP1;ratioP1;P2;durP2;ratioP2
69334;SDS011;56477;52.742;15.242;2024-03-17T00:01:36;11.70;;;0.85;;
69334;SDS011;56477;52.742;15.242;2024-03-17T00:04:03;4.23;;;0.50;;
69334;SDS011;56477;52.742;15.242;2024-03-17T00:06:29;6.40;;;0.77;;
69334;SDS011;56477;52.742;15.242;2024-03-17T00:08:55;6.95;;;1.00;;
69334;SDS011;56477;52.742;15.242;2024-03-17T00:11:21;7.53;;;0.60;;
69334;SDS011;56477;52.742;15.242;2024-03-17T00:13:47;4.20;;;0.60;;
69334;SDS011;56477;52.742;15.242;2024-03-17T00:16:13;5.32;;;0.82;;
69334;SDS011;56477;52.742;15.242;2024-03-17T00:18:39;8.27;;;0.73;;
69334;SDS011;56477;52.742;15.242;2024-03-17T00:21:06;5.60;;;0.68;;
69334;SDS011;56477;52.742;15.242;2024-03-17T00:23:32;4.23;;;1.00;;
69334;SDS011;56477;52.742;15.242;2024-03-17T00:25:58;3.25;;;0.30;;
69334;SDS011;56477;52.742;15.242;2024-03-17T00:28:24;6.03;;;0.73;;
69334;SDS011;56477;52.742;15.242;2024-03-17T00:30:50;5.32;;;0.68;;
69334;SDS011;56477;52.742;15.242;2024-03-17T00:33:16;9.30;;;0.80;;
69334;SDS011;56477;52.742;15.242;2024-03-17T00:35:42;5.40;;;0.85;;
69334;SDS011;56477;52.742;15.242;2024-03-17T00:38:08;6.73;;;0.50;;
69334;SDS011;56477;52.742;15.242;2024-03-17T00:40:37;5.55;;;0.75;;
69334;SDS011;56477;52.742;15.242;2024-03-17T00:43:04;6.38;;;0.98;;
69334;SDS011;56477;52.742;15.242;2024-03-17T00:45:30;5.07;;;0.67;;
69334;SDS011;56477;52.742;15.242;2024-03-17T00:47:55;5.13;;;0.65;;
69334;SDS011;56477;52.742;15.242;2024-03-17T00:50:22;2.45;;;0.30;;
69334;SDS011;56477;52.742;15.242;2024-03-17T00:52:47;4.33;;;1.03;;
69334;SDS011;56477;52.742;15.242;2024-03-17T00:55:13;6.00;;;1.00;;
69334;SDS011;56477;52.742;15.242;2024-03-17T00:57:40;6.20;;;0.47;;
69334;SDS011;56477;52.742;15.242;2024-03-17T01:00:07;7.15;;;0.85;;
69334;SDS011;56477;52.742;15.242;2024-03-17T01:02:37;4.53;;;0.77;;
69334;SDS011;56477;52.742;15.242;2024-03-17T01:05:03;4.95;;;0.63;;
69334;SDS011;56477;52.742;15.242;2024-03-17T01:07:33;6.10;;;0.60;;
69334;SDS011;56477;52.742;15.242;2024-03-17T01:10:00;6.65;;;0.73;;
69334;SDS011;56477;52.742;15.242;2024-03-17T01:12:25;4.10;;;0.60;;
69334;SDS011;56477;52.742;15.242;2024-03-17T01:14:52;9.82;;;0.82;;
69334;SDS011;56477;52.742;15.242;2024-03-17T01:17:18;4.80;;;0.65;;
69334;SDS011;56477;52.742;15.242;2024-03-17T01:19:45;8.27;;;1.20;;
69334;SDS011;56477;52.742;15.242;2024-03-17T01:22:10;9.33;;;0.63;;
69334;SDS011;56477;52.742;15.242;2024-03-17T01:24:37;5.60;;;1.00;;
69334;SDS011;56477;52.742;15.242;2024-03-17T01:27:05;8.50;;;0.77;;
69334;SDS011;56477;52.742;15.242;2024-03-17T01:29:32;7.00;;;0.70;;
69334;SDS011;56477;52.742;15.242;2024-03-17T01:31:57;4.53;;;0.40;;
69334;SDS011;56477;52.742;15.242;2024-03-17T01:34:23;4.82;;;0.40;;
69334;SDS011;56477;52.742;15.242;2024-03-17T01:36:49;5.18;;;0.60;;
69334;SDS011;56477;52.742;15.242;2024-03-17T01:39:15;3.20;;;0.57;;
69334;SDS011;56477;52.742;15.242;2024-03-17T01:41:43;2.53;;;0.73;;
69334;SDS011;56477;52.742;15.242;2024-03-17T01:44:18;5.18;;;0.57;;
69334;SDS011;56477;52.742;15.242;2024-03-17T01:46:47;6.72;;;0.73;;
69334;SDS011;56477;52.742;15.242;2024-03-17T01:49:14;9.65;;;0.85;;
69334;SDS011;56477;52.742;15.242;2024-03-17T01:51:39;7.43;;;1.00;;
69334;SDS011;56477;52.742;15.242;2024-03-17T01:54:06;3.13;;;0.22;;
69334;SDS011;56477;52.742;15.242;2024-03-17T01:56:33;6.65;;;0.50;;
69334;SDS011;56477;52.742;15.242;2024-03-17T01:58:59;6.30;;;0.40;;
69334;SDS011;56477;52.742;15.242;2024-03-17T02:01:26;4.97;;;0.60;;
69334;SDS011;56477;52.742;15.242;2024-03-17T02:03:52;6.38;;;0.80;;
69334;SDS011;56477;52.742;15.242;2024-03-17T02:06:18;5.25;;;0.75;;
69334;SDS011;56477;52.742;15.242;2024-03-17T02:08:51;5.50;;;0.70;;
69334;SDS011;56477;52.742;15.242;2024-03-17T02:11:25;5.93;;;0.47;;
69334;SDS011;56477;52.742;15.242;2024-03-17T02:13:53;8.82;;;1.08;;
69334;SDS011;56477;52.742;15.242;2024-03-17T02:16:19;6.20;;;0.63;;
69334;SDS011;56477;52.742;15.242;2024-03-17T02:18:46;8.32;;;0.68;;
69334;SDS011;56477;52.742;15.242;2024-03-17T02:21:12;8.13;;;0.60;;
69334;SDS011;56477;52.742;15.242;2024-03-17T02:23:39;7.05;;;0.80;;
69334;SDS011;56477;52.742;15.242;2024-03-17T02:26:04;5.63;;;0.63;;
69334;SDS011;56477;52.742;15.242;2024-03-17T02:28:37;9.80;;;1.27;;
69334;SDS011;56477;52.742;15.242;2024-03-17T02:31:04;3.80;;;0.30;;
69334;SDS011;56477;52.742;15.242;2024-03-17T02:33:32;8.32;;;0.82;;
69334;SDS011;56477;52.742;15.242;2024-03-17T02:35:58;4.00;;;0.30;;
69334;SDS011;56477;52.742;15.242;2024-03-17T02:38:25;4.05;;;0.40;;
69334;SDS011;56477;52.742;15.242;2024-03-17T02:41:17;5.75;;;0.80;;
69334;SDS011;56477;52.742;15.242;2024-03-17T02:43:44;4.40;;;0.40;;
69334;SDS011;56477;52.742;15.242;2024-03-17T02:46:11;5.35;;;0.55;;
69334;SDS011;56477;52.742;15.242;2024-03-17T02:48:41;7.35;;;0.95;;
69334;SDS011;56477;52.742;15.242;2024-03-17T02:51:13;8.35;;;0.75;;
69334;SDS011;56477;52.742;15.242;2024-03-17T02:53:40;6.38;;;0.70;;
69334;SDS011;56477;52.742;15.242;2024-03-17T02:56:07;8.90;;;0.90;;
69334;SDS011;56477;52.742;15.242;2024-03-17T02:58:37;8.60;;;1.15;;
69334;SDS011;56477;52.742;15.242;2024-03-17T03:01:04;8.80;;;0.93;;
69334;SDS011;56477;52.742;15.242;2024-03-17T03:03:31;5.00;;;0.90;;
69334;SDS011;56477;52.742;15.242;2024-03-17T03:05:58;4.30;;;0.47;;
69334;SDS011;56477;52.742;15.242;2024-03-17T03:08:26;5.83;;;0.57;;
69334;SDS011;56477;52.742;15.242;2024-03-17T03:10:52;6.32;;;0.57;;
69334;SDS011;56477;52.742;15.242;2024-03-17T03:13:18;7.95;;;0.50;;
69334;SDS011;56477;52.742;15.242;2024-03-17T03:15:46;6.93;;;0.68;;
69334;SDS011;56477;52.742;15.242;2024-03-17T03:18:14;5.20;;;0.77;;
69334;SDS011;56477;52.742;15.242;2024-03-17T03:20:40;5.47;;;0.57;;
69334;SDS011;56477;52.742;15.242;2024-03-17T03:23:06;5.97;;;0.60;;
69334;SDS011;56477;52.742;15.242;2024-03-17T03:25:32;5.50;;;0.80;;
69334;SDS011;56477;52.742;15.242;2024-03-17T03:27:58;6.95;;;0.70;;
69334;SDS011;56477;52.742;15.242;2024-03-17T03:30:24;5.75;;;1.05;;
69334;SDS011;56477;52.742;15.242;2024-03-17T03:32:50;9.17;;;0.60;;
69334;SDS011;56477;52.742;15.242;2024-03-17T03:35:16;6.80;;;0.85;;
69334;SDS011;56477;52.742;15.242;2024-03-17T03:37:42;6.65;;;0.52;;
69334;SDS011;56477;52.742;15.242;2024-03-17T03:40:08;2.13;;;0.30;;
69334;SDS011;56477;52.742;15.242;2024-03-17T03:42:44;3.88;;;0.30;;
69334;SDS011;56477;52.742;15.242;2024-03-17T03:45:10;6.65;;;0.68;;
69334;SDS011;56477;52.742;15.242;2024-03-17T03:47:40;5.30;;;0.68;;
69334;SDS011;56477;52.742;15.242;2024-03-17T03:50:10;7.70;;;0.60;;
69334;SDS011;56477;52.742;15.242;2024-03-17T03:52:37;4.35;;;0.60;;
69334;SDS011;56477;52.742;15.242;2024-03-17T03:55:06;7.22;;;1.13;;
69334;SDS011;56477;52.742;15.242;2024-03-17T03:57:36;5.78;;;0.68;;
69334;SDS011;56477;52.742;15.242;2024-03-17T04:00:02;12.40;;;0.73;;
69334;SDS011;56477;52.742;15.242;2024-03-17T04:02:48;6.70;;;0.70;;
69334;SDS011;56477;52.742;15.242;2024-03-17T04:05:18;6.70;;;0.40;;
69334;SDS011;56477;52.742;15.242;2024-03-17T04:07:45;4.75;;;0.95;;
69334;SDS011;56477;52.742;15.242;2024-03-17T04:10:13;5.75;;;0.57;;
69334;SDS011;56477;52.742;15.242;2024-03-17T04:12:40;13.18;;;0.90;;
69334;SDS011;56477;52.742;15.242;2024-03-17T04:15:07;2.33;;;0.23;;
69334;SDS011;56477;52.742;15.242;2024-03-17T04:17:36;6.97;;;0.70;;
69334;SDS011;56477;52.742;15.242;2024-03-17T04:20:03;5.07;;;0.75;;
69334;SDS011;56477;52.742;15.242;2024-03-17T04:22:41;3.15;;;0.52;;
69334;SDS011;56477;52.742;15.242;2024-03-17T04:25:11;4.75;;;0.50;;
69334;SDS011;56477;52.742;15.242;2024-03-17T04:27:38;5.73;;;0.77;;
69334;SDS011;56477;52.742;15.242;2024-03-17T04:30:05;7.75;;;0.63;;
69334;SDS011;56477;52.742;15.242;2024-03-17T04:32:32;4.60;;;0.40;;
69334;SDS011;56477;52.742;15.242;2024-03-17T04:34:59;6.43;;;0.35;;
69334;SDS011;56477;52.742;15.242;2024-03-17T04:37:25;6.22;;;0.57;;
69334;SDS011;56477;52.742;15.242;2024-03-17T04:39:51;7.13;;;0.73;;
69334;SDS011;56477;52.742;15.242;2024-03-17T04:42:17;5.20;;;0.68;;
69334;SDS011;56477;52.742;15.242;2024-03-17T04:44:44;7.72;;;0.60;;
69334;SDS011;56477;52.742;15.242;2024-03-17T04:47:11;7.88;;;0.57;;
69334;SDS011;56477;52.742;15.242;2024-03-17T04:49:38;6.00;;;0.65;;
69334;SDS011;56477;52.742;15.242;2024-03-17T04:52:06;7.83;;;0.53;;
69334;SDS011;56477;52.742;15.242;2024-03-17T04:54:32;11.23;;;1.13;;
69334;SDS011;56477;52.742;15.242;2024-03-17T04:56:59;5.85;;;0.93;;
69334;SDS011;56477;52.742;15.242;2024-03-17T04:59:26;9.85;;;0.82;;
69334;SDS011;56477;52.742;15.242;2024-03-17T05:01:52;5.68;;;0.73;;
69334;SDS011;56477;52.742;15.242;2024-03-17T05:04:18;4.63;;;0.40;;
69334;SDS011;56477;52.742;15.242;2024-03-17T05:06:45;3.00;;;0.20;;
69334;SDS011;56477;52.742;15.242;2024-03-17T05:09:15;6.47;;;0.70;;
69334;SDS011;56477;52.742;15.242;2024-03-17T05:11:44;3.83;;;0.47;;
69334;SDS011;56477;52.742;15.242;2024-03-17T05:14:11;10.35;;;1.08;;
69334;SDS011;56477;52.742;15.242;2024-03-17T05:16:37;4.80;;;0.57;;
69334;SDS011;56477;52.742;15.242;2024-03-17T05:19:04;7.90;;;0.80;;
69334;SDS011;56477;52.742;15.242;2024-03-17T05:21:30;5.00;;;0.57;;
69334;SDS011;56477;52.742;15.242;2024-03-17T05:23:57;5.32;;;0.52;;
69334;SDS011;56477;52.742;15.242;2024-03-17T05:26:24;9.65;;;1.10;;
69334;SDS011;56477;52.742;15.242;2024-03-17T05:28:50;3.57;;;1.10;;
69334;SDS011;56477;52.742;15.242;2024-03-17T05:31:16;7.78;;;1.20;;
69334;SDS011;56477;52.742;15.242;2024-03-17T05:33:43;8.43;;;1.23;;
69334;SDS011;56477;52.742;15.242;2024-03-17T05:36:12;6.28;;;0.70;;
69334;SDS011;56477;52.742;15.242;2024-03-17T05:38:38;7.22;;;0.80;;
69334;SDS011;56477;52.742;15.242;2024-03-17T05:41:05;8.67;;;0.43;;
69334;SDS011;56477;52.742;15.242;2024-03-17T05:43:33;5.57;;;0.40;;
69334;SDS011;56477;52.742;15.242;2024-03-17T05:46:04;8.32;;;0.47;;
69334;SDS011;56477;52.742;15.242;2024-03-17T05:48:37;3.10;;;0.38;;
69334;SDS011;56477;52.742;15.242;2024-03-17T05:51:06;6.60;;;0.80;;
69334;SDS011;56477;52.742;15.242;2024-03-17T05:53:33;5.57;;;0.50;;
69334;SDS011;56477;52.742;15.242;2024-03-17T05:56:03;9.90;;;0.80;;
69334;SDS011;56477;52.742;15.242;2024-03-17T05:58:29;3.88;;;0.45;;
69334;SDS011;56477;52.742;15.242;2024-03-17T06:00:56;6.68;;;0.47;;
69334;SDS011;56477;52.742;15.242;2024-03-17T06:03:23;12.15;;;1.15;;
69334;SDS011;56477;52.742;15.242;2024-03-17T06:05:49;4.97;;;0.70;;
69334;SDS011;56477;52.742;15.242;2024-03-17T06:08:15;4.97;;;0.30;;
69334;SDS011;56477;52.742;15.242;2024-03-17T06:10:45;6.78;;;0.80;;
69334;SDS011;56477;52.742;15.242;2024-03-17T06:13:12;5.65;;;0.60;;
69334;SDS011;56477;52.742;15.242;2024-03-17T06:15:40;5.53;;;0.47;;
69334;SDS011;56477;52.742;15.242;2024-03-17T06:18:06;8.43;;;0.93;;
69334;SDS011;56477;52.742;15.242;2024-03-17T06:20:41;4.15;;;0.52;;
69334;SDS011;56477;52.742;15.242;2024-03-17T06:23:07;6.60;;;0.55;;
69334;SDS011;56477;52.742;15.242;2024-03-17T06:25:38;11.83;;;1.13;;
69334;SDS011;56477;52.742;15.242;2024-03-17T06:28:08;3.50;;;0.80;;
69334;SDS011;56477;52.742;15.242;2024-03-17T06:30:36;7.63;;;1.35;;
69334;SDS011;56477;52.742;15.242;2024-03-17T06:33:02;6.88;;;1.02;;
69334;SDS011;56477;52.742;15.242;2024-03-17T06:35:28;5.60;;;1.05;;
69334;SDS011;56477;52.742;15.242;2024-03-17T06:37:58;4.77;;;0.60;;
69334;SDS011;56477;52.742;15.242;2024-03-17T06:40:25;5.53;;;1.17;;
69334;SDS011;56477;52.742;15.242;2024-03-17T06:42:51;10.55;;;0.68;;
69334;SDS011;56477;52.742;15.242;2024-03-17T06:45:19;3.15;;;0.40;;
69334;SDS011;56477;52.742;15.242;2024-03-17T06:47:46;2.57;;;0.50;;
69334;SDS011;56477;52.742;15.242;2024-03-17T06:50:12;6.28;;;1.23;;
69334;SDS011;56477;52.742;15.242;2024-03-17T06:52:37;5.38;;;0.70;;
69334;SDS011;56477;52.742;15.242;2024-03-17T06:55:04;3.80;;;0.63;;
69334;SDS011;56477;52.742;15.242;2024-03-17T06:57:32;2.58;;;0.45;;
69334;SDS011;56477;52.742;15.242;2024-03-17T06:59:59;3.75;;;0.60;;
69334;SDS011;56477;52.742;15.242;2024-03-17T07:02:26;1.35;;;0.35;;
69334;SDS011;56477;52.742;15.242;2024-03-17T07:04:51;3.83;;;0.70;;
69334;SDS011;56477;52.742;15.242;2024-03-17T07:07:17;1.73;;;0.20;;
69334;SDS011;56477;52.742;15.242;2024-03-17T07:09:43;5.57;;;0.97;;
69334;SDS011;56477;52.742;15.242;2024-03-17T07:12:10;4.53;;;0.55;;
69334;SDS011;56477;52.742;15.242;2024-03-17T07:14:39;4.13;;;0.63;;
69334;SDS011;56477;52.742;15.242;2024-03-17T07:17:05;2.65;;;0.68;;
69334;SDS011;56477;52.742;15.242;2024-03-17T07:19:31;3.27;;;0.67;;
69334;SDS011;56477;52.742;15.242;2024-03-17T07:21:58;5.00;;;0.60;;
69334;SDS011;56477;52.742;15.242;2024-03-17T07:24:24;3.35;;;0.55;;
69334;SDS011;56477;52.742;15.242;2024-03-17T07:26:53;3.35;;;0.80;;
69334;SDS011;56477;52.742;15.242;2024-03-17T07:29:19;3.17;;;0.60;;
69334;SDS011;56477;52.742;15.242;2024-03-17T07:31:48;6.47;;;0.70;;
69334;SDS011;56477;52.742;15.242;2024-03-17T07:34:13;3.63;;;0.73;;
69334;SDS011;56477;52.742;15.242;2024-03-17T07:36:39;3.03;;;0.60;;
69334;SDS011;56477;52.742;15.242;2024-03-17T07:39:05;2.20;;;0.50;;
69334;SDS011;56477;52.742;15.242;2024-03-17T07:41:37;3.63;;;1.00;;
69334;SDS011;56477;52.742;15.242;2024-03-17T07:44:03;3.30;;;0.70;;
69334;SDS011;56477;52.742;15.242;2024-03-17T07:46:31;3.03;;;1.30;;
69334;SDS011;56477;52.742;15.242;2024-03-17T07:48:57;2.58;;;0.68;;
69334;SDS011;56477;52.742;15.242;2024-03-17T07:51:26;3.67;;;0.57;;
69334;SDS011;56477;52.742;15.242;2024-03-17T07:53:52;2.38;;;0.88;;
69334;SDS011;56477;52.742;15.242;2024-03-17T07:56:21;5.37;;;0.70;;
69334;SDS011;56477;52.742;15.242;2024-03-17T07:58:49;4.72;;;0.85;;
69334;SDS011;56477;52.742;15.242;2024-03-17T08:01:17;2.83;;;0.63;;
69334;SDS011;56477;52.742;15.242;2024-03-17T08:03:46;2.38;;;0.40;;
69334;SDS011;56477;52.742;15.242;2024-03-17T08:06:19;4.15;;;0.60;;
69334;SDS011;56477;52.742;15.242;2024-03-17T08:08:45;2.70;;;0.77;;
69334;SDS011;56477;52.742;15.242;2024-03-17T08:11:10;5.50;;;0.80;;
69334;SDS011;56477;52.742;15.242;2024-03-17T08:13:37;4.47;;;0.85;;
69334;SDS011;56477;52.742;15.242;2024-03-17T08:18:50;2.00;;;0.60;;
69334;SDS011;56477;52.742;15.242;2024-03-17T08:21:17;3.53;;;1.13;;
69334;SDS011;56477;52.742;15.242;2024-03-17T08:23:43;5.45;;;1.13;;
69334;SDS011;56477;52.742;15.242;2024-03-17T08:26:11;5.35;;;1.60;;
69334;SDS011;56477;52.742;15.242;2024-03-17T08:28:37;4.18;;;1.08;;
69334;SDS011;56477;52.742;15.242;2024-03-17T08:31:03;4.00;;;1.27;;
69334;SDS011;56477;52.742;15.242;2024-03-17T08:33:30;5.35;;;1.02;;
69334;SDS011;56477;52.742;15.242;2024-03-17T08:35:56;5.10;;;0.90;;
69334;SDS011;56477;52.742;15.242;2024-03-17T08:38:28;4.00;;;0.90;;
69334;SDS011;56477;52.742;15.242;2024-03-17T08:40:55;2.53;;;0.70;;
69334;SDS011;56477;52.742;15.242;2024-03-17T08:43:22;4.97;;;0.88;;
69334;SDS011;56477;52.742;15.242;2024-03-17T08:45:59;3.75;;;0.80;;
69334;SDS011;56477;52.742;15.242;2024-03-17T08:48:27;5.32;;;0.98;;
69334;SDS011;56477;52.742;15.242;2024-03-17T08:50:54;3.90;;;0.70;;
69334;SDS011;56477;52.742;15.242;2024-03-17T08:53:20;7.40;;;0.90;;
69334;SDS011;56477;52.742;15.242;2024-03-17T08:55:47;3.15;;;1.05;;
69334;SDS011;56477;52.742;15.242;2024-03-17T08:58:13;4.95;;;0.80;;
69334;SDS011;56477;52.742;15.242;2024-03-17T09:00:39;4.10;;;0.68;;
69334;SDS011;56477;52.742;15.242;2024-03-17T09:03:07;4.00;;;0.75;;
69334;SDS011;56477;52.742;15.242;2024-03-17T09:05:37;5.93;;;0.80;;
69334;SDS011;56477;52.742;15.242;2024-03-17T09:08:07;3.20;;;0.68;;
69334;SDS011;56477;52.742;15.242;2024-03-17T09:10:42;4.60;;;0.70;;
69334;SDS011;56477;52.742;15.242;2024-03-17T09:13:16;2.65;;;0.60;;
69334;SDS011;56477;52.742;15.242;2024-03-17T09:15:57;4.90;;;0.60;;
69334;SDS011;56477;52.742;15.242;2024-03-17T09:18:27;3.43;;;0.60;;
69334;SDS011;56477;52.742;15.242;2024-03-17T09:21:01;2.95;;;0.65;;
69334;SDS011;56477;52.742;15.242;2024-03-17T09:23:28;4.80;;;0.90;;
69334;SDS011;56477;52.742;15.242;2024-03-17T09:25:58;5.68;;;0.98;;
69334;SDS011;56477;52.742;15.242;2024-03-17T09:28:29;5.15;;;1.27;;
69334;SDS011;56477;52.742;15.242;2024-03-17T09:30:56;3.73;;;0.43;;
69334;SDS011;56477;52.742;15.242;2024-03-17T09:33:23;3.85;;;0.70;;
69334;SDS011;56477;52.742;15.242;2024-03-17T09:35:54;1.88;;;0.70;;
69334;SDS011;56477;52.742;15.242;2024-03-17T09:38:22;3.13;;;0.50;;
69334;SDS011;56477;52.742;15.242;2024-03-17T09:40:48;1.98;;;0.55;;
69334;SDS011;56477;52.742;15.242;2024-03-17T09:43:23;1.47;;;0.40;;
69334;SDS011;56477;52.742;15.242;2024-03-17T09:45:50;1.88;;;0.30;;
69334;SDS011;56477;52.742;15.242;2024-03-17T09:48:20;3.88;;;0.70;;
69334;SDS011;56477;52.742;15.242;2024-03-17T09:50:50;1.83;;;0.40;;
69334;SDS011;56477;52.742;15.242;2024-03-17T09:53:25;2.97;;;0.70;;
69334;SDS011;56477;52.742;15.242;2024-03-17T09:56:00;1.25;;;0.40;;
69334;SDS011;56477;52.742;15.242;2024-03-17T09:58:45;2.28;;;0.50;;
69334;SDS011;56477;52.742;15.242;2024-03-17T10:01:14;1.67;;;0.40;;
69334;SDS011;56477;52.742;15.242;2024-03-17T10:06:26;3.03;;;0.40;;
69334;SDS011;56477;52.742;15.242;2024-03-17T10:11:32;1.42;;;0.30;;
69334;SDS011;56477;52.742;15.242;2024-03-17T10:14:00;1.48;;;0.50;;
69334;SDS011;56477;52.742;15.242;2024-03-17T10:16:30;2.58;;;0.60;;
69334;SDS011;56477;52.742;15.242;2024-03-17T10:21:36;2.58;;;0.40;;
69334;SDS011;56477;52.742;15.242;2024-03-17T10:24:06;2.38;;;0.52;;
69334;SDS011;56477;52.742;15.242;2024-03-17T10:26:55;1.33;;;0.35;;
69334;SDS011;56477;52.742;15.242;2024-03-17T10:31:57;5.67;;;0.60;;
69334;SDS011;56477;52.742;15.242;2024-03-17T10:34:26;2.58;;;0.40;;
69334;SDS011;56477;52.742;15.242;2024-03-17T10:39:45;1.45;;;0.22;;
69334;SDS011;56477;52.742;15.242;2024-03-17T10:42:13;1.15;;;0.40;;
69334;SDS011;56477;52.742;15.242;2024-03-17T10:44:40;1.77;;;0.53;;
69334;SDS011;56477;52.742;15.242;2024-03-17T10:47:26;4.32;;;0.30;;
69334;SDS011;56477;52.742;15.242;2024-03-17T10:49:55;1.45;;;0.40;;
69334;SDS011;56477;52.742;15.242;2024-03-17T10:52:22;2.92;;;0.30;;
69334;SDS011;56477;52.742;15.242;2024-03-17T10:54:52;1.55;;;0.25;;
69334;SDS011;56477;52.742;15.242;2024-03-17T11:00:02;1.13;;;0.20;;
69334;SDS011;56477;52.742;15.242;2024-03-17T11:02:31;1.50;;;0.47;;
69334;SDS011;56477;52.742;15.242;2024-03-17T11:05:05;1.40;;;0.35;;
69334;SDS011;56477;52.742;15.242;2024-03-17T11:07:33;2.38;;;0.40;;
69334;SDS011;56477;52.742;15.242;2024-03-17T11:10:03;2.93;;;0.20;;
69334;SDS011;56477;52.742;15.242;2024-03-17T11:12:43;1.20;;;0.28;;
69334;SDS011;56477;52.742;15.242;2024-03-17T11:15:35;1.77;;;0.40;;
69334;SDS011;56477;52.742;15.242;2024-03-17T11:20:34;2.33;;;0.52;;
69334;SDS011;56477;52.742;15.242;2024-03-17T11:23:01;1.10;;;0.20;;
69334;SDS011;56477;52.742;15.242;2024-03-17T11:27:57;3.30;;;0.70;;
69334;SDS011;56477;52.742;15.242;2024-03-17T11:39:01;1.48;;;0.32;;
69334;SDS011;56477;52.742;15.242;2024-03-17T11:44:15;2.28;;;0.50;;
69334;SDS011;56477;52.742;15.242;2024-03-17T11:46:41;3.13;;;0.65;;
69334;SDS011;56477;52.742;15.242;2024-03-17T11:49:20;2.80;;;0.77;;
69334;SDS011;56477;52.742;15.242;2024-03-17T11:51:53;4.32;;;1.20;;
69334;SDS011;56477;52.742;15.242;2024-03-17T11:54:24;5.30;;;1.67;;
69334;SDS011;56477;52.742;15.242;2024-03-17T11:56:55;4.25;;;1.45;;
69334;SDS011;56477;52.742;15.242;2024-03-17T11:59:26;7.40;;;1.50;;
69334;SDS011;56477;52.742;15.242;2024-03-17T12:01:52;8.00;;;1.83;;
69334;SDS011;56477;52.742;15.242;2024-03-17T12:04:19;5.43;;;1.80;;
69334;SDS011;56477;52.742;15.242;2024-03-17T12:06:50;6.95;;;2.40;;
69334;SDS011;56477;52.742;15.242;2024-03-17T12:09:21;7.43;;;2.50;;
69334;SDS011;56477;52.742;15.242;2024-03-17T12:12:05;8.10;;;2.70;;
69334;SDS011;56477;52.742;15.242;2024-03-17T12:14:33;9.10;;;2.67;;
69334;SDS011;56477;52.742;15.242;2024-03-17T12:17:00;8.73;;;2.50;;
69334;SDS011;56477;52.742;15.242;2024-03-17T12:19:27;7.68;;;2.15;;
69334;SDS011;56477;52.742;15.242;2024-03-17T12:21:55;9.15;;;3.25;;
69334;SDS011;56477;52.742;15.242;2024-03-17T12:24:25;7.30;;;2.75;;
69334;SDS011;56477;52.742;15.242;2024-03-17T12:26:53;7.90;;;2.23;;
69334;SDS011;56477;52.742;15.242;2024-03-17T12:32:05;5.00;;;1.38;;
69334;SDS011;56477;52.742;15.242;2024-03-17T12:34:37;6.13;;;1.83;;
69334;SDS011;56477;52.742;15.242;2024-03-17T12:37:04;3.50;;;0.90;;
69334;SDS011;56477;52.742;15.242;2024-03-17T12:39:33;3.23;;;0.70;;
69334;SDS011;56477;52.742;15.242;2024-03-17T12:42:14;1.52;;;0.50;;
69334;SDS011;56477;52.742;15.242;2024-03-17T12:49:48;2.55;;;0.70;;
69334;SDS011;56477;52.742;15.242;2024-03-17T12:52:19;3.23;;;0.63;;
69334;SDS011;56477;52.742;15.242;2024-03-17T12:57:52;7.13;;;2.22;;
69334;SDS011;56477;52.742;15.242;2024-03-17T13:01:04;9.13;;;2.88;;
69334;SDS011;56477;52.742;15.242;2024-03-17T13:03:35;9.93;;;4.15;;
69334;SDS011;56477;52.742;15.242;2024-03-17T13:06:03;9.37;;;3.50;;
69334;SDS011;56477;52.742;15.242;2024-03-17T13:08:35;9.25;;;2.53;;
69334;SDS011;56477;52.742;15.242;2024-03-17T13:11:01;10.00;;;3.70;;
69334;SDS011;56477;52.742;15.242;2024-03-17T13:13:29;12.25;;;3.53;;
69334;SDS011;56477;52.742;15.242;2024-03-17T13:15:55;10.73;;;3.10;;
69334;SDS011;56477;52.742;15.242;2024-03-17T13:18:21;8.87;;;2.70;;
69334;SDS011;56477;52.742;15.242;2024-03-17T13:20:48;10.02;;;3.17;;
69334;SDS011;56477;52.742;15.242;2024-03-17T13:23:19;8.20;;;2.50;;
69334;SDS011;56477;52.742;15.242;2024-03-17T13:25:47;9.57;;;2.53;;
69334;SDS011;56477;52.742;15.242;2024-03-17T13:28:13;8.20;;;2.45;;
69334;SDS011;56477;52.742;15.242;2024-03-17T13:30:40;8.97;;;2.30;;
69334;SDS011;56477;52.742;15.242;2024-03-17T13:33:07;7.40;;;2.25;;
69334;SDS011;56477;52.742;15.242;2024-03-17T13:35:40;7.40;;;2.38;;
69334;SDS011;56477;52.742;15.242;2024-03-17T13:38:07;8.27;;;2.78;;
69334;SDS011;56477;52.742;15.242;2024-03-17T13:40:34;8.25;;;2.88;;
69334;SDS011;56477;52.742;15.242;2024-03-17T13:43:01;8.23;;;2.47;;
69334;SDS011;56477;52.742;15.242;2024-03-17T13:45:30;6.18;;;2.45;;
69334;SDS011;56477;52.742;15.242;2024-03-17T13:48:03;8.18;;;2.50;;
69334;SDS011;56477;52.742;15.242;2024-03-17T13:50:30;6.65;;;2.28;;
69334;SDS011;56477;52.742;15.242;2024-03-17T13:52:56;5.78;;;2.13;;
69334;SDS011;56477;52.742;15.242;2024-03-17T13:55:22;6.73;;;1.80;;
69334;SDS011;56477;52.742;15.242;2024-03-17T13:57:51;5.50;;;1.90;;
69334;SDS011;56477;52.742;15.242;2024-03-17T14:00:25;6.20;;;1.90;;
69334;SDS011;56477;52.742;15.242;2024-03-17T14:02:53;8.32;;;2.13;;
69334;SDS011;56477;52.742;15.242;2024-03-17T14:05:20;6.45;;;1.95;;
69334;SDS011;56477;52.742;15.242;2024-03-17T14:07:47;6.17;;;1.87;;
69334;SDS011;56477;52.742;15.242;2024-03-17T14:10:14;7.30;;;1.80;;
69334;SDS011;56477;52.742;15.242;2024-03-17T14:12:42;6.82;;;1.55;;
69334;SDS011;56477;52.742;15.242;2024-03-17T14:15:09;7.18;;;1.90;;
69334;SDS011;56477;52.742;15.242;2024-03-17T14:17:37;3.13;;;1.00;;
69334;SDS011;56477;52.742;15.242;2024-03-17T14:20:04;6.77;;;1.90;;
69334;SDS011;56477;52.742;15.242;2024-03-17T14:22:37;5.65;;;1.73;;
69334;SDS011;56477;52.742;15.242;2024-03-17T14:25:06;5.85;;;1.40;;
69334;SDS011;56477;52.742;15.242;2024-03-17T14:27:33;5.70;;;1.17;;
69334;SDS011;56477;52.742;15.242;2024-03-17T14:29:59;4.78;;;1.77;;
69334;SDS011;56477;52.742;15.242;2024-03-17T14:32:26;4.20;;;1.40;;
69334;SDS011;56477;52.742;15.242;2024-03-17T14:34:53;5.85;;;1.25;;
69334;SDS011;56477;52.742;15.242;2024-03-17T14:37:19;4.88;;;1.25;;
69334;SDS011;56477;52.742;15.242;2024-03-17T14:39:45;5.27;;;1.27;;
69334;SDS011;56477;52.742;15.242;2024-03-17T14:42:11;4.33;;;1.30;;
69334;SDS011;56477;52.742;15.242;2024-03-17T14:44:36;4.22;;;1.15;;
69334;SDS011;56477;52.742;15.242;2024-03-17T14:47:03;4.38;;;1.30;;
69334;SDS011;56477;52.742;15.242;2024-03-17T14:49:32;3.10;;;0.93;;
69334;SDS011;56477;52.742;15.242;2024-03-17T14:51:59;3.50;;;0.73;;
69334;SDS011;56477;52.742;15.242;2024-03-17T14:54:25;2.53;;;1.00;;
69334;SDS011;56477;52.742;15.242;2024-03-17T14:56:52;3.55;;;0.73;;
69334;SDS011;56477;52.742;15.242;2024-03-17T14:59:20;4.82;;;1.23;;
69334;SDS011;56477;52.742;15.242;2024-03-17T15:01:46;4.28;;;0.93;;
69334;SDS011;56477;52.742;15.242;2024-03-17T15:04:15;2.30;;;0.70;;
69334;SDS011;56477;52.742;15.242;2024-03-17T15:06:41;1.48;;;0.40;;
69334;SDS011;56477;52.742;15.242;2024-03-17T15:09:12;2.58;;;0.80;;
69334;SDS011;56477;52.742;15.242;2024-03-17T15:11:39;2.45;;;0.85;;
69334;SDS011;56477;52.742;15.242;2024-03-17T15:14:04;2.67;;;0.50;;
69334;SDS011;56477;52.742;15.242;2024-03-17T15:16:37;1.75;;;0.45;;
69334;SDS011;56477;52.742;15.242;2024-03-17T15:19:05;1.30;;;0.40;;
69334;SDS011;56477;52.742;15.242;2024-03-17T15:21:32;1.95;;;0.50;;
69334;SDS011;56477;52.742;15.242;2024-03-17T15:23:59;2.78;;;0.60;;
69334;SDS011;56477;52.742;15.242;2024-03-17T15:26:26;4.03;;;0.77;;